Terminal Aerodrome Forecast
Issued by NWS

Home | Current Version | Previous Version | Graphics & Text | Print | Product List | Glossary On
Versions: 1 2 3 4 5 6 7 8 9 10 11 12 13 14 15
567
FTUS42 KMHX 220812 AAA
TAFPGV
TAF AMD
KPGV 220812Z 2208/2306 VRB03KT P6SM SCT250
      TEMPO 2209/2211 3SM BR
     FM221500 11008KT P6SM SCT050 BKN200
      AMD LTD TO CLD VIS AND WIND=

USA.gov is the U.S. government's official web portal to all federal, state and local government web resources and services.